createdAt,value
2022-10-22T00:01:01.216Z,16.20
2022-10-22T00:03:29.265Z,16.10
2022-10-22T00:05:57.274Z,16.10
2022-10-22T00:08:26.579Z,16.10
2022-10-22T00:10:54.519Z,16.10
2022-10-22T00:13:23.333Z,16.10
2022-10-22T00:15:51.265Z,16.10
2022-10-22T00:18:19.195Z,16.10
2022-10-22T00:20:47.137Z,16.10
2022-10-22T00:23:15.069Z,16.10
2022-10-22T00:25:44.399Z,16.10
2022-10-22T00:28:12.496Z,16.10
2022-10-22T00:30:40.416Z,16.10
2022-10-22T00:33:08.449Z,16.10
2022-10-22T00:35:36.365Z,16.10
2022-10-22T00:38:04.316Z,16.10
2022-10-22T00:40:32.626Z,16.10
2022-10-22T00:43:01.924Z,16.10
2022-10-22T00:45:30.777Z,16.10
2022-10-22T00:48:02.836Z,16.00
2022-10-22T00:50:35.304Z,16.00
2022-10-22T00:53:04.702Z,16.00
2022-10-22T00:55:34.817Z,16.00
2022-10-22T00:58:05.118Z,16.00
2022-10-22T01:00:33.382Z,16.00
2022-10-22T01:03:01.674Z,16.00
2022-10-22T01:05:30.821Z,16.00
2022-10-22T01:07:58.966Z,16.00
2022-10-22T01:10:39.939Z,16.00
2022-10-22T01:13:27.044Z,16.00
2022-10-22T01:16:01.413Z,16.00
2022-10-22T01:18:36.981Z,16.00
2022-10-22T01:21:13.227Z,16.00
2022-10-22T01:24:04.592Z,16.00
2022-10-22T01:26:44.958Z,16.00
2022-10-22T01:29:19.549Z,16.00
2022-10-22T01:31:52.753Z,15.90
2022-10-22T01:34:21.544Z,15.90
2022-10-22T01:36:52.270Z,15.90
2022-10-22T01:39:21.513Z,15.90
2022-10-22T01:41:49.444Z,15.90
2022-10-22T01:44:29.942Z,15.90
2022-10-22T01:47:09.004Z,15.90
2022-10-22T01:49:51.474Z,15.90
2022-10-22T01:52:29.457Z,15.90
2022-10-22T01:55:13.972Z,15.90
2022-10-22T01:57:51.353Z,15.90
2022-10-22T02:00:21.315Z,15.90
2022-10-22T02:02:57.386Z,15.90
2022-10-22T02:05:33.275Z,15.90
2022-10-22T02:08:07.226Z,15.90
2022-10-22T02:10:37.623Z,15.80
2022-10-22T02:13:09.336Z,15.80
2022-10-22T02:15:40.937Z,15.80
2022-10-22T02:18:10.817Z,15.80
2022-10-22T02:20:41.824Z,15.80
2022-10-22T02:23:11.279Z,15.80
2022-10-22T02:25:42.708Z,15.80
2022-10-22T02:28:20.387Z,15.80
2022-10-22T02:30:53.942Z,15.80
2022-10-22T02:33:25.519Z,15.80
2022-10-22T02:35:54.127Z,15.80
2022-10-22T02:38:22.893Z,15.80
2022-10-22T02:40:51.056Z,15.80
2022-10-22T02:43:19.421Z,15.80
2022-10-22T02:45:49.047Z,15.80
2022-10-22T02:48:16.909Z,15.80
2022-10-22T02:50:44.871Z,15.80
2022-10-22T02:53:12.787Z,15.80
2022-10-22T02:55:40.696Z,15.80
2022-10-22T02:58:08.573Z,15.80
2022-10-22T03:00:36.578Z,15.80
2022-10-22T03:03:05.898Z,15.80
2022-10-22T03:05:33.807Z,15.80
2022-10-22T03:08:01.707Z,15.80
2022-10-22T03:10:29.630Z,15.80
2022-10-22T03:12:57.708Z,15.80
2022-10-22T03:15:25.678Z,15.80
2022-10-22T03:17:53.596Z,15.80
2022-10-22T03:20:22.998Z,15.80
2022-10-22T03:22:50.990Z,15.80
2022-10-22T03:25:22.211Z,15.80
2022-10-22T03:27:53.475Z,15.80
2022-10-22T03:30:21.531Z,15.80
2022-10-22T03:32:49.435Z,15.80
2022-10-22T03:35:17.523Z,15.80
2022-10-22T03:37:46.783Z,15.80
2022-10-22T03:40:15.114Z,15.80
2022-10-22T03:42:43.672Z,15.80
2022-10-22T03:45:12.255Z,15.80
2022-10-22T03:47:40.476Z,15.80
2022-10-22T03:50:09.835Z,15.80
2022-10-22T03:52:38.745Z,15.80
2022-10-22T03:55:09.361Z,15.80
2022-10-22T03:57:37.577Z,15.80
2022-10-22T04:00:07.527Z,15.80
2022-10-22T04:02:35.391Z,15.80
2022-10-22T04:05:03.444Z,15.80
2022-10-22T04:07:31.472Z,15.80
2022-10-22T04:09:59.515Z,15.80
2022-10-22T04:12:28.847Z,15.80
2022-10-22T04:14:56.742Z,15.80
2022-10-22T04:17:24.870Z,15.80
2022-10-22T04:19:52.769Z,15.70
2022-10-22T04:22:20.747Z,15.70
2022-10-22T04:24:48.669Z,15.80
2022-10-22T04:27:16.617Z,15.70
2022-10-22T04:29:45.856Z,15.80
2022-10-22T04:32:13.837Z,15.80
2022-10-22T04:34:41.880Z,15.80
2022-10-22T04:37:09.821Z,15.80
2022-10-22T04:39:37.713Z,15.80
2022-10-22T04:42:06.106Z,15.80
2022-10-22T04:44:34.206Z,15.80
2022-10-22T04:47:03.492Z,15.80
2022-10-22T04:49:31.415Z,15.80
2022-10-22T04:51:59.312Z,15.80
2022-10-22T04:54:30.495Z,15.80
2022-10-22T04:57:01.242Z,15.80
2022-10-22T04:59:29.122Z,15.80
2022-10-22T05:01:57.098Z,15.80
2022-10-22T05:04:26.362Z,15.80
2022-10-22T05:06:54.346Z,15.80
2022-10-22T05:09:22.703Z,15.80
2022-10-22T05:11:52.116Z,15.70
2022-10-22T05:14:22.514Z,15.70
2022-10-22T05:16:50.579Z,15.70
2022-10-22T05:19:20.651Z,15.70
2022-10-22T05:21:49.904Z,15.70
2022-10-22T05:24:17.909Z,15.70
2022-10-22T05:26:45.884Z,15.70
2022-10-22T05:29:14.448Z,15.70
2022-10-22T05:31:42.453Z,15.70
2022-10-22T05:34:10.413Z,15.70
2022-10-22T05:36:38.368Z,15.70
2022-10-22T05:39:07.888Z,15.70
2022-10-22T05:41:36.819Z,15.70
2022-10-22T05:44:05.689Z,15.70
2022-10-22T05:46:36.142Z,15.70
2022-10-22T05:49:06.848Z,15.70
2022-10-22T05:51:37.206Z,15.70
2022-10-22T05:54:10.932Z,15.70
2022-10-22T05:56:39.789Z,15.70
2022-10-22T05:59:07.725Z,15.70
2022-10-22T06:01:36.344Z,15.60
2022-10-22T06:04:07.466Z,15.60
2022-10-22T06:06:38.129Z,15.60
2022-10-22T06:09:13.676Z,15.60
2022-10-22T06:11:41.756Z,15.60
2022-10-22T06:14:10.688Z,15.60
2022-10-22T06:16:38.869Z,15.60
2022-10-22T06:19:06.891Z,15.60
2022-10-22T06:21:34.883Z,15.50
2022-10-22T06:24:03.118Z,15.60
2022-10-22T06:26:32.733Z,15.60
2022-10-22T06:29:01.300Z,15.50
2022-10-22T06:31:36.462Z,15.50
2022-10-22T06:34:04.462Z,15.60
2022-10-22T06:36:32.528Z,15.60
2022-10-22T06:39:00.515Z,15.50
2022-10-22T06:41:28.808Z,15.50
2022-10-22T06:43:59.979Z,15.50
2022-10-22T06:46:28.280Z,15.60
2022-10-22T06:48:57.825Z,15.60
2022-10-22T06:51:27.043Z,15.60
2022-10-22T06:53:55.604Z,15.60
2022-10-22T06:56:25.941Z,15.60
2022-10-22T06:58:55.709Z,15.60
2022-10-22T07:01:27.234Z,15.60
2022-10-22T07:03:55.654Z,15.60
2022-10-22T07:06:25.543Z,15.60
2022-10-22T07:08:54.749Z,15.60
2022-10-22T07:11:25.315Z,15.60
2022-10-22T07:13:55.536Z,15.50
2022-10-22T07:16:29.542Z,15.50
2022-10-22T07:19:00.077Z,15.50
2022-10-22T07:21:28.302Z,15.60
2022-10-22T07:23:56.546Z,15.60
2022-10-22T07:26:25.388Z,15.60
2022-10-22T07:28:53.524Z,15.60
2022-10-22T07:31:21.565Z,15.60
2022-10-22T07:33:50.955Z,15.60
2022-10-22T07:36:19.103Z,15.60
2022-10-22T07:38:47.721Z,15.60
2022-10-22T07:41:16.891Z,15.60
2022-10-22T07:43:45.193Z,15.70
2022-10-22T07:46:13.466Z,15.70
2022-10-22T07:48:41.357Z,15.70
2022-10-22T07:51:10.720Z,15.70
2022-10-22T07:53:39.119Z,15.70
2022-10-22T07:56:07.738Z,15.70
2022-10-22T07:58:36.128Z,15.70
2022-10-22T08:01:06.396Z,15.70
2022-10-22T08:03:35.095Z,15.70
2022-10-22T08:06:03.222Z,15.70
2022-10-22T08:08:33.395Z,15.70
2022-10-22T08:11:02.436Z,15.70
2022-10-22T08:13:31.465Z,15.70
2022-10-22T08:16:00.250Z,15.70
2022-10-22T08:18:28.450Z,15.80
2022-10-22T08:20:56.642Z,15.80
2022-10-22T08:23:26.185Z,15.80
2022-10-22T08:25:58.431Z,15.90
2022-10-22T08:28:28.486Z,15.90
2022-10-22T08:30:56.467Z,15.90
2022-10-22T08:33:24.386Z,15.90
2022-10-22T08:35:53.369Z,16.00
2022-10-22T08:38:21.679Z,16.00
2022-10-22T08:40:52.601Z,16.00
2022-10-22T08:44:04.997Z,16.00
2022-10-22T08:46:57.069Z,16.00
2022-10-22T08:49:29.546Z,16.00
2022-10-22T08:51:59.504Z,16.00
2022-10-22T08:54:37.581Z,16.00
2022-10-22T08:57:23.743Z,16.00
2022-10-22T08:59:59.746Z,16.00
2022-10-22T09:02:38.511Z,16.10
2022-10-22T09:05:21.893Z,16.10
2022-10-22T09:07:50.976Z,16.10
2022-10-22T09:10:20.342Z,16.10
2022-10-22T09:12:49.406Z,16.10
2022-10-22T09:15:20.577Z,16.20
2022-10-22T09:18:02.018Z,16.20
2022-10-22T09:20:39.653Z,16.20
2022-10-22T09:23:24.409Z,16.30
2022-10-22T09:25:53.363Z,16.30
2022-10-22T09:28:21.925Z,16.30
2022-10-22T09:30:51.348Z,16.30
2022-10-22T09:33:24.890Z,16.40
2022-10-22T09:35:54.563Z,16.40
2022-10-22T09:38:26.998Z,16.40
2022-10-22T09:40:57.343Z,16.50
2022-10-22T09:43:25.526Z,16.50
2022-10-22T09:45:59.748Z,16.50
2022-10-22T09:48:32.121Z,16.60
2022-10-22T09:51:05.782Z,16.60
2022-10-22T09:53:38.613Z,16.60
2022-10-22T09:56:10.786Z,16.70
2022-10-22T09:58:49.171Z,16.70
2022-10-22T10:01:20.968Z,16.70
2022-10-22T10:03:50.253Z,16.80
2022-10-22T10:06:22.856Z,16.80
2022-10-22T10:08:51.431Z,16.90
2022-10-22T10:11:29.552Z,16.90
2022-10-22T10:14:12.243Z,16.90
2022-10-22T10:16:58.364Z,17.00
2022-10-22T10:19:43.127Z,17.00
2022-10-22T10:22:21.789Z,17.00
2022-10-22T10:25:05.030Z,17.10
2022-10-22T10:27:38.703Z,17.10
2022-10-22T10:30:13.824Z,17.10
2022-10-22T10:33:03.089Z,17.20
2022-10-22T10:35:40.220Z,17.20
2022-10-22T10:38:24.768Z,17.30
2022-10-22T10:41:03.116Z,17.30
2022-10-22T10:43:39.635Z,17.30
2022-10-22T10:48:57.251Z,17.40
2022-10-22T10:51:37.920Z,17.40
2022-10-22T10:54:28.439Z,17.50
2022-10-22T10:56:59.313Z,17.60
2022-10-22T10:59:41.884Z,17.60
2022-10-22T11:02:30.376Z,17.60
2022-10-22T11:05:19.336Z,17.70
2022-10-22T11:07:55.711Z,17.70
2022-10-22T11:10:30.361Z,17.80
2022-10-22T11:13:04.432Z,17.80
2022-10-22T11:15:35.035Z,17.80
2022-10-22T11:18:11.784Z,17.80
2022-10-22T11:20:51.562Z,17.80
2022-10-22T11:23:25.782Z,17.80
2022-10-22T11:25:53.858Z,17.80
2022-10-22T11:28:27.026Z,17.80
2022-10-22T11:31:02.467Z,17.80
2022-10-22T11:33:38.588Z,17.80
2022-10-22T11:36:09.407Z,17.80
2022-10-22T11:38:38.212Z,17.80
2022-10-22T11:41:10.568Z,17.80
2022-10-22T11:43:57.470Z,17.90
2022-10-22T11:46:36.574Z,18.00
2022-10-22T11:49:17.331Z,18.00
2022-10-22T11:51:47.573Z,18.10
2022-10-22T11:54:48.711Z,18.10
2022-10-22T11:57:27.431Z,18.10
2022-10-22T11:59:59.316Z,18.20
2022-10-22T12:02:42.045Z,18.20
2022-10-22T12:05:37.297Z,18.20
2022-10-22T12:08:18.533Z,18.20
2022-10-22T12:11:05.793Z,18.20
2022-10-22T12:13:51.748Z,18.20
2022-10-22T12:16:32.209Z,18.20
2022-10-22T12:19:16.471Z,18.20
2022-10-22T12:21:49.479Z,18.20
2022-10-22T12:24:22.831Z,18.20
2022-10-22T12:26:52.646Z,18.30
2022-10-22T12:29:25.547Z,18.30
2022-10-22T12:31:54.004Z,18.40
2022-10-22T12:34:25.528Z,18.40
2022-10-22T12:36:55.372Z,18.40
2022-10-22T12:39:28.033Z,18.50
2022-10-22T12:41:56.204Z,18.50
2022-10-22T12:44:24.143Z,18.50
2022-10-22T12:46:55.996Z,18.50
2022-10-22T12:49:34.242Z,18.60
2022-10-22T12:52:05.248Z,18.60
2022-10-22T12:54:35.936Z,18.60
2022-10-22T12:57:04.054Z,18.60
2022-10-22T12:59:35.693Z,18.60
2022-10-22T13:02:09.042Z,18.70
2022-10-22T13:04:39.829Z,18.70
2022-10-22T13:07:19.962Z,18.70
2022-10-22T13:09:59.927Z,18.70
2022-10-22T13:12:29.070Z,18.80
2022-10-22T13:14:56.944Z,18.80
2022-10-22T13:17:40.985Z,18.80
2022-10-22T13:20:19.514Z,18.90
2022-10-22T13:23:06.186Z,18.90
2022-10-22T13:25:37.283Z,18.90
2022-10-22T13:28:21.878Z,18.90
2022-10-22T13:30:54.497Z,18.90
2022-10-22T13:33:26.595Z,18.90
2022-10-22T13:35:56.108Z,18.90
2022-10-22T13:38:25.734Z,18.90
2022-10-22T13:40:55.879Z,18.80
2022-10-22T13:43:25.089Z,18.80
2022-10-22T13:45:56.455Z,18.80
2022-10-22T13:48:26.397Z,18.80
2022-10-22T13:50:54.822Z,18.80
2022-10-22T13:53:24.902Z,18.90
2022-10-22T13:55:54.577Z,18.90
2022-10-22T13:58:25.121Z,19.00
2022-10-22T14:00:55.582Z,19.10
2022-10-22T14:03:26.937Z,19.10
2022-10-22T14:05:55.193Z,19.20
2022-10-22T14:08:25.756Z,19.20
2022-10-22T14:10:55.587Z,19.20
2022-10-22T14:13:23.580Z,19.20
2022-10-22T14:15:53.156Z,19.20
2022-10-22T14:18:26.542Z,19.30
2022-10-22T14:20:57.148Z,19.30
2022-10-22T14:23:27.812Z,19.30
2022-10-22T14:25:58.117Z,19.30
2022-10-22T14:28:26.058Z,19.30
2022-10-22T14:30:54.698Z,19.30
2022-10-22T14:33:28.904Z,19.30
2022-10-22T14:36:00.338Z,19.30
2022-10-22T14:38:28.821Z,19.30
2022-10-22T14:40:58.837Z,19.30
2022-10-22T14:43:28.620Z,19.30
2022-10-22T14:45:56.767Z,19.30
2022-10-22T14:48:24.795Z,19.30
2022-10-22T14:50:52.959Z,19.30
2022-10-22T14:53:20.907Z,19.30
2022-10-22T14:55:49.201Z,19.30
2022-10-22T14:58:18.615Z,19.30
2022-10-22T15:00:46.608Z,19.30
2022-10-22T15:03:14.530Z,19.20
2022-10-22T15:05:44.283Z,19.20
2022-10-22T15:08:13.880Z,19.20
2022-10-22T15:10:41.826Z,19.10
2022-10-22T15:13:10.115Z,19.10
2022-10-22T15:15:41.249Z,19.00
2022-10-22T15:18:09.233Z,19.00
2022-10-22T15:20:37.179Z,18.90
2022-10-22T15:23:05.219Z,18.80
2022-10-22T15:25:33.174Z,18.80
2022-10-22T15:28:09.207Z,18.70
2022-10-22T15:30:39.333Z,18.60
2022-10-22T15:33:07.388Z,18.60
2022-10-22T15:35:35.347Z,18.50
2022-10-22T15:38:06.363Z,18.50
2022-10-22T15:40:34.358Z,18.40
2022-10-22T15:43:02.322Z,18.40
2022-10-22T15:45:30.280Z,18.30
2022-10-22T15:47:59.556Z,18.30
2022-10-22T15:50:27.712Z,18.20
2022-10-22T15:52:55.753Z,18.20
2022-10-22T15:55:23.827Z,18.10
2022-10-22T15:57:57.964Z,18.10
2022-10-22T16:00:27.358Z,18.00
2022-10-22T16:02:55.682Z,18.00
2022-10-22T16:05:25.005Z,18.00
2022-10-22T16:07:55.687Z,17.90
2022-10-22T16:10:24.373Z,17.90
2022-10-22T16:12:54.515Z,17.90
2022-10-22T16:15:22.421Z,17.90
2022-10-22T16:17:52.437Z,17.80
2022-10-22T16:20:20.384Z,17.80
2022-10-22T16:22:51.825Z,17.80
2022-10-22T16:25:19.745Z,17.70
2022-10-22T16:27:50.471Z,17.70
2022-10-22T16:30:18.712Z,17.70
2022-10-22T16:32:46.615Z,17.60
2022-10-22T16:35:14.624Z,17.60
2022-10-22T16:37:42.702Z,17.50
2022-10-22T16:40:13.705Z,17.40
2022-10-22T16:42:42.112Z,17.40
2022-10-22T16:45:10.991Z,17.30
2022-10-22T16:47:40.267Z,17.30
2022-10-22T16:50:09.570Z,17.30
2022-10-22T16:52:37.511Z,17.20
2022-10-22T16:55:06.117Z,17.10
2022-10-22T16:57:35.922Z,17.10
2022-10-22T17:00:05.632Z,17.10
2022-10-22T17:02:35.188Z,17.00
2022-10-22T17:05:03.089Z,17.00
2022-10-22T17:07:31.003Z,17.00
2022-10-22T17:09:58.950Z,17.00
2022-10-22T17:12:26.833Z,16.90
2022-10-22T17:14:56.090Z,16.90
2022-10-22T17:17:24.058Z,16.90
2022-10-22T17:19:52.009Z,16.80
2022-10-22T17:22:19.924Z,16.80
2022-10-22T17:24:48.050Z,16.80
2022-10-22T17:27:16.069Z,16.70
2022-10-22T17:29:43.958Z,16.80
2022-10-22T17:32:13.353Z,16.70
2022-10-22T17:34:41.246Z,16.70
2022-10-22T17:37:09.117Z,16.70
2022-10-22T17:39:37.218Z,16.60
2022-10-22T17:42:05.208Z,16.60
2022-10-22T17:44:33.123Z,16.60
2022-10-22T17:47:01.721Z,16.50
2022-10-22T17:49:31.336Z,16.40
2022-10-22T17:54:32.184Z,16.40
2022-10-22T17:57:00.247Z,16.30
2022-10-22T17:59:28.431Z,16.30
2022-10-22T18:01:59.460Z,16.30
2022-10-22T18:04:28.181Z,16.30
2022-10-22T18:06:57.650Z,16.20
2022-10-22T18:09:26.248Z,16.20
2022-10-22T18:11:55.648Z,16.10
2022-10-22T18:14:24.609Z,16.00
2022-10-22T18:16:54.483Z,15.90
2022-10-22T18:19:24.570Z,15.80
2022-10-22T18:21:52.486Z,15.70
2022-10-22T18:24:21.749Z,15.70
2022-10-22T18:26:49.864Z,15.80
2022-10-22T18:29:20.340Z,15.80
2022-10-22T18:31:48.976Z,15.80
2022-10-22T18:34:20.230Z,15.70
2022-10-22T18:36:51.002Z,15.70
2022-10-22T18:39:19.480Z,15.70
2022-10-22T18:41:48.900Z,15.70
2022-10-22T18:44:17.889Z,15.70
2022-10-22T18:46:45.881Z,15.60
2022-10-22T18:49:18.162Z,15.60
2022-10-22T18:51:48.560Z,15.60
2022-10-22T18:54:23.064Z,15.60
2022-10-22T18:56:53.634Z,15.60
2022-10-22T18:59:23.968Z,15.60
2022-10-22T19:01:52.937Z,15.50
2022-10-22T19:04:21.048Z,15.50
2022-10-22T19:06:48.959Z,15.40
2022-10-22T19:09:17.734Z,15.40
2022-10-22T19:11:46.669Z,15.40
2022-10-22T19:14:19.347Z,15.30
2022-10-22T19:16:47.614Z,15.30
2022-10-22T19:19:18.090Z,15.30
2022-10-22T19:21:46.343Z,15.30
2022-10-22T19:24:16.123Z,15.30
2022-10-22T19:26:44.598Z,15.30
2022-10-22T19:29:12.568Z,15.30
2022-10-22T19:31:41.856Z,15.30
2022-10-22T19:34:10.959Z,15.30
2022-10-22T19:36:38.876Z,15.30
2022-10-22T19:39:07.652Z,15.30
2022-10-22T19:41:36.290Z,15.20
2022-10-22T19:44:04.577Z,15.10
2022-10-22T19:46:32.752Z,15.00
2022-10-22T19:49:03.418Z,15.00
2022-10-22T19:51:33.461Z,15.10
2022-10-22T19:54:02.885Z,15.10
2022-10-22T19:56:31.502Z,15.10
2022-10-22T19:59:00.110Z,15.20
2022-10-22T20:01:28.554Z,15.10
2022-10-22T20:03:56.491Z,15.10
2022-10-22T20:06:25.788Z,15.20
2022-10-22T20:08:56.096Z,15.10
2022-10-22T20:11:27.038Z,15.10
2022-10-22T20:13:55.135Z,15.10
2022-10-22T20:16:24.530Z,15.00
2022-10-22T20:18:53.090Z,15.00
2022-10-22T20:21:21.969Z,15.00
2022-10-22T20:23:53.591Z,15.10
2022-10-22T20:26:23.395Z,15.10
2022-10-22T20:28:51.546Z,15.00
2022-10-22T20:31:21.358Z,15.00
2022-10-22T20:33:50.362Z,15.00
2022-10-22T20:36:20.492Z,15.00
2022-10-22T20:38:48.871Z,15.00
2022-10-22T20:41:20.038Z,15.00
2022-10-22T20:43:49.078Z,15.00
2022-10-22T20:46:19.754Z,14.90
2022-10-22T20:48:47.913Z,14.90
2022-10-22T20:51:15.844Z,14.90
2022-10-22T20:53:43.756Z,14.80
2022-10-22T20:56:12.293Z,14.80
2022-10-22T20:58:47.601Z,14.80
2022-10-22T21:01:21.353Z,14.80
2022-10-22T21:03:49.890Z,14.70
2022-10-22T21:06:18.050Z,14.70
2022-10-22T21:08:46.003Z,14.80
2022-10-22T21:11:13.923Z,14.80
2022-10-22T21:13:43.187Z,14.80
2022-10-22T21:16:12.521Z,14.70
2022-10-22T21:18:40.592Z,14.80
2022-10-22T21:21:09.136Z,14.80
2022-10-22T21:23:37.813Z,14.80
2022-10-22T21:26:06.857Z,14.80
2022-10-22T21:28:35.970Z,14.70
2022-10-22T21:31:07.120Z,14.70
2022-10-22T21:33:37.690Z,14.70
2022-10-22T21:36:07.224Z,14.60
2022-10-22T21:38:37.033Z,14.60
2022-10-22T21:41:10.414Z,14.60
2022-10-22T21:43:39.483Z,14.60
2022-10-22T21:46:11.130Z,14.60
2022-10-22T21:48:40.378Z,14.60
2022-10-22T21:51:10.347Z,14.60
2022-10-22T21:53:39.132Z,14.60
2022-10-22T21:56:08.811Z,14.50
2022-10-22T21:58:36.895Z,14.50
2022-10-22T22:01:05.433Z,14.50
2022-10-22T22:03:34.822Z,14.40
2022-10-22T22:06:04.492Z,14.40
2022-10-22T22:08:34.074Z,14.30
2022-10-22T22:11:03.162Z,14.30
2022-10-22T22:13:31.172Z,14.30
2022-10-22T22:16:02.478Z,14.30
2022-10-22T22:18:30.741Z,14.30
2022-10-22T22:21:00.793Z,14.40
2022-10-22T22:23:28.684Z,14.40
2022-10-22T22:26:00.017Z,14.40
2022-10-22T22:28:29.532Z,14.40
2022-10-22T22:30:57.860Z,14.40
2022-10-22T22:33:25.801Z,14.40
2022-10-22T22:35:54.350Z,14.40
2022-10-22T22:38:23.646Z,14.30
2022-10-22T22:40:51.570Z,14.30
2022-10-22T22:43:19.494Z,14.40
2022-10-22T22:45:47.409Z,14.30
2022-10-22T22:48:15.748Z,14.30
2022-10-22T22:50:43.680Z,14.30
2022-10-22T22:53:11.664Z,14.30
2022-10-22T22:55:40.920Z,14.30
2022-10-22T22:58:08.815Z,14.30
2022-10-22T23:00:36.751Z,14.20
2022-10-22T23:03:05.356Z,14.20
2022-10-22T23:05:33.469Z,14.20
2022-10-22T23:08:01.365Z,14.20
2022-10-22T23:10:29.270Z,14.20
2022-10-22T23:12:58.555Z,14.10
2022-10-22T23:15:26.425Z,14.10
2022-10-22T23:17:54.363Z,14.10
2022-10-22T23:20:22.350Z,14.10
2022-10-22T23:22:50.262Z,14.10
2022-10-22T23:25:18.148Z,14.10
2022-10-22T23:27:46.043Z,14.10
2022-10-22T23:30:16.247Z,14.10
2022-10-22T23:32:44.164Z,14.10
2022-10-22T23:35:12.084Z,14.10
2022-10-22T23:37:40.257Z,14.10
2022-10-22T23:40:09.450Z,14.10
2022-10-22T23:45:10.844Z,14.00
2022-10-22T23:47:40.422Z,14.00
2022-10-22T23:50:09.272Z,14.00
2022-10-22T23:52:37.295Z,14.00
2022-10-22T23:55:05.761Z,14.00
2022-10-22T23:57:33.658Z,14.00
